sensor_id;sensor_type;location;lat;lon;timestamp;temperature;humidity
32215;DHT22;18708;53.124;23.190;2022-11-20T00:01:10;-6.00;19.60
32215;DHT22;18708;53.124;23.190;2022-11-20T00:03:36;-5.90;14.80
32215;DHT22;18708;53.124;23.190;2022-11-20T00:06:04;-5.90;19.40
32215;DHT22;18708;53.124;23.190;2022-11-20T00:08:30;-6.00;20.80
32215;DHT22;18708;53.124;23.190;2022-11-20T00:10:56;-5.90;22.90
32215;DHT22;18708;53.124;23.190;2022-11-20T00:13:21;-6.00;17.90
32215;DHT22;18708;53.124;23.190;2022-11-20T00:15:47;-6.00;19.80
32215;DHT22;18708;53.124;23.190;2022-11-20T00:18:13;-6.00;20.50
32215;DHT22;18708;53.124;23.190;2022-11-20T00:20:39;-6.00;21.10
32215;DHT22;18708;53.124;23.190;2022-11-20T00:23:04;-6.00;8.20
32215;DHT22;18708;53.124;23.190;2022-11-20T00:25:31;-6.00;3.60
32215;DHT22;18708;53.124;23.190;2022-11-20T00:27:58;-6.00;1.00
32215;DHT22;18708;53.124;23.190;2022-11-20T00:30:24;-6.00;2.70
32215;DHT22;18708;53.124;23.190;2022-11-20T00:32:49;-6.00;4.10
32215;DHT22;18708;53.124;23.190;2022-11-20T00:35:15;-6.00;2.20
32215;DHT22;18708;53.124;23.190;2022-11-20T00:37:41;-6.00;1.00
32215;DHT22;18708;53.124;23.190;2022-11-20T00:40:07;-6.00;1.00
32215;DHT22;18708;53.124;23.190;2022-11-20T00:42:32;-6.00;1.00
32215;DHT22;18708;53.124;23.190;2022-11-20T00:44:59;-6.00;1.00
32215;DHT22;18708;53.124;23.190;2022-11-20T00:47:24;-6.00;1.00
32215;DHT22;18708;53.124;23.190;2022-11-20T00:49:50;-6.10;1.00
32215;DHT22;18708;53.124;23.190;2022-11-20T00:52:15;-6.10;1.00
32215;DHT22;18708;53.124;23.190;2022-11-20T00:54:41;-6.00;1.00
32215;DHT22;18708;53.124;23.190;2022-11-20T00:57:07;-6.10;1.00
32215;DHT22;18708;53.124;23.190;2022-11-20T00:59:32;-6.00;1.00
32215;DHT22;18708;53.124;23.190;2022-11-20T01:01:58;-6.00;1.00
32215;DHT22;18708;53.124;23.190;2022-11-20T01:04:23;-6.00;1.00
32215;DHT22;18708;53.124;23.190;2022-11-20T01:06:49;-6.00;1.00
32215;DHT22;18708;53.124;23.190;2022-11-20T01:09:15;-6.00;1.00
32215;DHT22;18708;53.124;23.190;2022-11-20T01:11:42;-6.00;1.00
32215;DHT22;18708;53.124;23.190;2022-11-20T01:14:15;-6.00;1.00
32215;DHT22;18708;53.124;23.190;2022-11-20T01:16:43;-6.00;11.20
32215;DHT22;18708;53.124;23.190;2022-11-20T01:19:15;-6.00;20.60
32215;DHT22;18708;53.124;23.190;2022-11-20T01:21:43;-5.90;16.50
32215;DHT22;18708;53.124;23.190;2022-11-20T01:24:14;-5.90;19.70
32215;DHT22;18708;53.124;23.190;2022-11-20T01:26:41;-5.90;18.70
32215;DHT22;18708;53.124;23.190;2022-11-20T01:29:14;-5.90;14.80
32215;DHT22;18708;53.124;23.190;2022-11-20T01:31:40;-5.90;20.60
32215;DHT22;18708;53.124;23.190;2022-11-20T01:34:17;-5.90;20.10
32215;DHT22;18708;53.124;23.190;2022-11-20T01:36:44;-5.90;17.40
32215;DHT22;18708;53.124;23.190;2022-11-20T01:39:15;-5.90;20.20
32215;DHT22;18708;53.124;23.190;2022-11-20T01:41:42;-5.90;20.80
32215;DHT22;18708;53.124;23.190;2022-11-20T01:47:14;-5.90;1.00
32215;DHT22;18708;53.124;23.190;2022-11-20T01:49:46;-5.90;1.00
32215;DHT22;18708;53.124;23.190;2022-11-20T01:52:42;-5.90;4.60
32215;DHT22;18708;53.124;23.190;2022-11-20T01:55:19;-6.00;1.00
32215;DHT22;18708;53.124;23.190;2022-11-20T01:57:47;-6.00;1.00
32215;DHT22;18708;53.124;23.190;2022-11-20T02:00:16;-6.00;1.00
32215;DHT22;18708;53.124;23.190;2022-11-20T02:02:45;-6.00;1.00
32215;DHT22;18708;53.124;23.190;2022-11-20T02:08:09;-6.00;1.00
32215;DHT22;18708;53.124;23.190;2022-11-20T02:10:37;-6.00;1.00
32215;DHT22;18708;53.124;23.190;2022-11-20T02:13:03;-6.00;1.00
32215;DHT22;18708;53.124;23.190;2022-11-20T02:15:47;-6.00;1.00
32215;DHT22;18708;53.124;23.190;2022-11-20T02:18:18;-6.00;1.00
32215;DHT22;18708;53.124;23.190;2022-11-20T02:20:48;-6.00;1.00
32215;DHT22;18708;53.124;23.190;2022-11-20T02:23:31;-6.00;1.00
32215;DHT22;18708;53.124;23.190;2022-11-20T02:25:58;-6.00;1.00
32215;DHT22;18708;53.124;23.190;2022-11-20T02:28:24;-6.00;1.00
32215;DHT22;18708;53.124;23.190;2022-11-20T02:30:50;-6.00;1.00
32215;DHT22;18708;53.124;23.190;2022-11-20T02:33:16;-6.10;1.00
32215;DHT22;18708;53.124;23.190;2022-11-20T02:35:44;-6.00;1.00
32215;DHT22;18708;53.124;23.190;2022-11-20T02:38:10;-6.00;1.00
32215;DHT22;18708;53.124;23.190;2022-11-20T02:40:36;-6.00;1.00
32215;DHT22;18708;53.124;23.190;2022-11-20T02:43:02;-6.00;1.00
32215;DHT22;18708;53.124;23.190;2022-11-20T02:45:27;-6.00;1.00
32215;DHT22;18708;53.124;23.190;2022-11-20T02:47:53;-6.00;1.00
32215;DHT22;18708;53.124;23.190;2022-11-20T02:50:21;-5.90;1.00
32215;DHT22;18708;53.124;23.190;2022-11-20T02:52:46;-5.90;1.00
32215;DHT22;18708;53.124;23.190;2022-11-20T02:55:12;-5.90;1.00
32215;DHT22;18708;53.124;23.190;2022-11-20T02:57:38;-5.90;1.00
32215;DHT22;18708;53.124;23.190;2022-11-20T03:00:04;-5.90;1.00
32215;DHT22;18708;53.124;23.190;2022-11-20T03:02:31;-5.90;1.00
32215;DHT22;18708;53.124;23.190;2022-11-20T03:04:57;-5.90;1.00
32215;DHT22;18708;53.124;23.190;2022-11-20T03:07:22;-5.90;1.00
32215;DHT22;18708;53.124;23.190;2022-11-20T03:09:48;-5.90;1.00
32215;DHT22;18708;53.124;23.190;2022-11-20T03:12:14;-5.80;1.00
32215;DHT22;18708;53.124;23.190;2022-11-20T03:14:42;-5.80;1.00
32215;DHT22;18708;53.124;23.190;2022-11-20T03:17:10;-5.80;1.00
32215;DHT22;18708;53.124;23.190;2022-11-20T03:19:35;-5.80;1.00
32215;DHT22;18708;53.124;23.190;2022-11-20T03:22:03;-5.80;1.00
32215;DHT22;18708;53.124;23.190;2022-11-20T03:24:29;-5.80;1.00
32215;DHT22;18708;53.124;23.190;2022-11-20T03:26:55;-5.80;1.00
32215;DHT22;18708;53.124;23.190;2022-11-20T03:29:20;-5.80;1.00
32215;DHT22;18708;53.124;23.190;2022-11-20T03:31:46;-5.80;1.00
32215;DHT22;18708;53.124;23.190;2022-11-20T03:34:12;-5.80;1.00
32215;DHT22;18708;53.124;23.190;2022-11-20T03:36:39;-5.80;1.00
32215;DHT22;18708;53.124;23.190;2022-11-20T03:39:05;-5.80;1.00
32215;DHT22;18708;53.124;23.190;2022-11-20T03:41:35;-5.70;1.00
32215;DHT22;18708;53.124;23.190;2022-11-20T03:44:04;-5.70;1.00
32215;DHT22;18708;53.124;23.190;2022-11-20T03:46:30;-5.70;1.00
32215;DHT22;18708;53.124;23.190;2022-11-20T03:48:56;-5.70;1.00
32215;DHT22;18708;53.124;23.190;2022-11-20T03:51:26;-5.70;1.00
32215;DHT22;18708;53.124;23.190;2022-11-20T03:53:55;-5.70;1.00
32215;DHT22;18708;53.124;23.190;2022-11-20T03:56:26;-5.70;1.00
32215;DHT22;18708;53.124;23.190;2022-11-20T03:58:55;-5.70;1.00
32215;DHT22;18708;53.124;23.190;2022-11-20T04:01:28;-5.70;1.00
32215;DHT22;18708;53.124;23.190;2022-11-20T04:03:58;-5.70;1.00
32215;DHT22;18708;53.124;23.190;2022-11-20T04:06:37;-5.70;1.00
32215;DHT22;18708;53.124;23.190;2022-11-20T04:09:03;-5.70;1.00
32215;DHT22;18708;53.124;23.190;2022-11-20T04:11:30;-5.70;1.00
32215;DHT22;18708;53.124;23.190;2022-11-20T04:13:58;-5.70;1.00
32215;DHT22;18708;53.124;23.190;2022-11-20T04:16:25;-5.60;1.00
32215;DHT22;18708;53.124;23.190;2022-11-20T04:18:56;-5.60;1.00
32215;DHT22;18708;53.124;23.190;2022-11-20T04:21:22;-5.60;1.00
32215;DHT22;18708;53.124;23.190;2022-11-20T04:23:49;-5.60;1.00
32215;DHT22;18708;53.124;23.190;2022-11-20T04:26:15;-5.60;1.00
32215;DHT22;18708;53.124;23.190;2022-11-20T04:28:41;-5.60;1.00
32215;DHT22;18708;53.124;23.190;2022-11-20T04:31:12;-5.60;1.00
32215;DHT22;18708;53.124;23.190;2022-11-20T04:33:38;-5.60;1.00
32215;DHT22;18708;53.124;23.190;2022-11-20T04:36:06;-5.50;1.00
32215;DHT22;18708;53.124;23.190;2022-11-20T04:38:32;-5.50;1.00
32215;DHT22;18708;53.124;23.190;2022-11-20T04:41:05;-5.50;1.00
32215;DHT22;18708;53.124;23.190;2022-11-20T04:43:31;-5.50;1.00
32215;DHT22;18708;53.124;23.190;2022-11-20T04:45:58;-5.40;1.00
32215;DHT22;18708;53.124;23.190;2022-11-20T04:48:25;-5.40;1.00
32215;DHT22;18708;53.124;23.190;2022-11-20T04:50:51;-5.40;1.00
32215;DHT22;18708;53.124;23.190;2022-11-20T04:53:17;-5.40;1.00
32215;DHT22;18708;53.124;23.190;2022-11-20T04:55:43;-5.40;1.00
32215;DHT22;18708;53.124;23.190;2022-11-20T04:58:12;-5.40;1.00
32215;DHT22;18708;53.124;23.190;2022-11-20T05:00:38;-5.40;1.00
32215;DHT22;18708;53.124;23.190;2022-11-20T05:03:06;-5.40;1.00
32215;DHT22;18708;53.124;23.190;2022-11-20T05:05:33;-5.40;1.00
32215;DHT22;18708;53.124;23.190;2022-11-20T05:07:59;-5.40;1.00
32215;DHT22;18708;53.124;23.190;2022-11-20T05:10:26;-5.50;1.00
32215;DHT22;18708;53.124;23.190;2022-11-20T05:12:52;-5.50;1.00
32215;DHT22;18708;53.124;23.190;2022-11-20T05:15:18;-5.50;1.00
32215;DHT22;18708;53.124;23.190;2022-11-20T05:17:48;-5.60;1.00
32215;DHT22;18708;53.124;23.190;2022-11-20T05:20:14;-5.60;1.00
32215;DHT22;18708;53.124;23.190;2022-11-20T05:22:40;-5.60;1.00
32215;DHT22;18708;53.124;23.190;2022-11-20T05:25:05;-5.70;1.00
32215;DHT22;18708;53.124;23.190;2022-11-20T05:27:31;-5.70;1.00
32215;DHT22;18708;53.124;23.190;2022-11-20T05:29:57;-5.80;1.00
32215;DHT22;18708;53.124;23.190;2022-11-20T05:32:22;-5.80;1.00
32215;DHT22;18708;53.124;23.190;2022-11-20T05:34:52;-5.90;1.00
32215;DHT22;18708;53.124;23.190;2022-11-20T05:37:20;-5.90;1.00
32215;DHT22;18708;53.124;23.190;2022-11-20T05:39:47;-5.90;1.00
32215;DHT22;18708;53.124;23.190;2022-11-20T05:42:12;-5.90;1.00
32215;DHT22;18708;53.124;23.190;2022-11-20T05:45:00;-6.00;1.00
32215;DHT22;18708;53.124;23.190;2022-11-20T05:47:34;-6.00;1.00
32215;DHT22;18708;53.124;23.190;2022-11-20T05:50:02;-6.00;1.00
32215;DHT22;18708;53.124;23.190;2022-11-20T05:52:28;-6.00;1.00
32215;DHT22;18708;53.124;23.190;2022-11-20T05:54:54;-6.00;1.00
32215;DHT22;18708;53.124;23.190;2022-11-20T05:57:20;-6.10;1.00
32215;DHT22;18708;53.124;23.190;2022-11-20T05:59:46;-6.10;1.00
32215;DHT22;18708;53.124;23.190;2022-11-20T06:02:11;-6.10;1.00
32215;DHT22;18708;53.124;23.190;2022-11-20T06:04:37;-6.10;1.00
32215;DHT22;18708;53.124;23.190;2022-11-20T06:07:04;-6.10;1.00
32215;DHT22;18708;53.124;23.190;2022-11-20T06:09:29;-6.20;1.00
32215;DHT22;18708;53.124;23.190;2022-11-20T06:11:55;-6.20;1.00
32215;DHT22;18708;53.124;23.190;2022-11-20T06:14:21;-6.20;1.00
32215;DHT22;18708;53.124;23.190;2022-11-20T06:16:46;-6.20;1.00
32215;DHT22;18708;53.124;23.190;2022-11-20T06:19:12;-6.20;1.00
32215;DHT22;18708;53.124;23.190;2022-11-20T06:21:38;-6.20;1.00
32215;DHT22;18708;53.124;23.190;2022-11-20T06:24:03;-6.20;1.00
32215;DHT22;18708;53.124;23.190;2022-11-20T06:26:30;-6.20;1.00
32215;DHT22;18708;53.124;23.190;2022-11-20T06:28:55;-6.20;1.00
32215;DHT22;18708;53.124;23.190;2022-11-20T06:31:23;-6.30;1.00
32215;DHT22;18708;53.124;23.190;2022-11-20T06:33:50;-6.30;1.00
32215;DHT22;18708;53.124;23.190;2022-11-20T06:36:19;-6.20;1.00
32215;DHT22;18708;53.124;23.190;2022-11-20T06:38:48;-6.20;1.00
32215;DHT22;18708;53.124;23.190;2022-11-20T06:41:16;-6.20;1.00
32215;DHT22;18708;53.124;23.190;2022-11-20T06:43:42;-6.20;1.00
32215;DHT22;18708;53.124;23.190;2022-11-20T06:46:10;-6.20;1.00
32215;DHT22;18708;53.124;23.190;2022-11-20T06:48:36;-6.20;1.00
32215;DHT22;18708;53.124;23.190;2022-11-20T06:51:06;-6.10;1.00
32215;DHT22;18708;53.124;23.190;2022-11-20T06:53:33;-6.10;1.00
32215;DHT22;18708;53.124;23.190;2022-11-20T06:55:59;-6.10;1.00
32215;DHT22;18708;53.124;23.190;2022-11-20T06:58:27;-6.10;1.00
32215;DHT22;18708;53.124;23.190;2022-11-20T07:00:53;-6.00;1.00
32215;DHT22;18708;53.124;23.190;2022-11-20T07:03:19;-6.00;1.00
32215;DHT22;18708;53.124;23.190;2022-11-20T07:05:45;-5.90;1.00
32215;DHT22;18708;53.124;23.190;2022-11-20T07:08:11;-5.90;1.00
32215;DHT22;18708;53.124;23.190;2022-11-20T07:10:37;-5.80;1.00
32215;DHT22;18708;53.124;23.190;2022-11-20T07:13:03;-5.80;1.00
32215;DHT22;18708;53.124;23.190;2022-11-20T07:15:31;-5.70;1.00
32215;DHT22;18708;53.124;23.190;2022-11-20T07:18:00;-5.60;1.00
32215;DHT22;18708;53.124;23.190;2022-11-20T07:20:27;-5.60;1.00
32215;DHT22;18708;53.124;23.190;2022-11-20T07:22:58;-5.60;1.00
32215;DHT22;18708;53.124;23.190;2022-11-20T07:25:24;-5.40;1.00
32215;DHT22;18708;53.124;23.190;2022-11-20T07:27:50;-5.40;1.00
32215;DHT22;18708;53.124;23.190;2022-11-20T07:30:16;-5.30;1.00
32215;DHT22;18708;53.124;23.190;2022-11-20T07:32:45;-5.00;1.00
32215;DHT22;18708;53.124;23.190;2022-11-20T07:35:11;-4.80;1.00
32215;DHT22;18708;53.124;23.190;2022-11-20T07:37:37;-4.70;1.00
32215;DHT22;18708;53.124;23.190;2022-11-20T07:40:03;-4.30;1.00
32215;DHT22;18708;53.124;23.190;2022-11-20T07:42:29;-4.20;1.00
32215;DHT22;18708;53.124;23.190;2022-11-20T07:44:54;-3.90;1.00
32215;DHT22;18708;53.124;23.190;2022-11-20T07:47:20;-3.60;1.00
32215;DHT22;18708;53.124;23.190;2022-11-20T07:49:48;-3.10;1.00
32215;DHT22;18708;53.124;23.190;2022-11-20T07:52:14;-3.00;1.00
32215;DHT22;18708;53.124;23.190;2022-11-20T07:54:39;-2.70;1.00
32215;DHT22;18708;53.124;23.190;2022-11-20T07:57:05;-2.70;1.00
32215;DHT22;18708;53.124;23.190;2022-11-20T07:59:31;-2.20;1.00
32215;DHT22;18708;53.124;23.190;2022-11-20T08:01:56;-2.40;1.00
32215;DHT22;18708;53.124;23.190;2022-11-20T08:04:22;-1.90;1.00
32215;DHT22;18708;53.124;23.190;2022-11-20T08:06:48;-1.40;1.00
32215;DHT22;18708;53.124;23.190;2022-11-20T08:09:14;-1.10;1.00
32215;DHT22;18708;53.124;23.190;2022-11-20T08:11:40;-1.00;1.00
32215;DHT22;18708;53.124;23.190;2022-11-20T08:14:24;-1.00;1.00
32215;DHT22;18708;53.124;23.190;2022-11-20T08:16:49;-1.00;1.00
32215;DHT22;18708;53.124;23.190;2022-11-20T08:19:17;-0.50;1.00
32215;DHT22;18708;53.124;23.190;2022-11-20T08:21:43;-0.60;1.00
32215;DHT22;18708;53.124;23.190;2022-11-20T08:24:09;0.40;1.00
32215;DHT22;18708;53.124;23.190;2022-11-20T08:26:36;-0.60;1.00
32215;DHT22;18708;53.124;23.190;2022-11-20T08:29:03;0.20;1.00
32215;DHT22;18708;53.124;23.190;2022-11-20T08:31:29;0.70;1.00
32215;DHT22;18708;53.124;23.190;2022-11-20T08:33:55;0.30;1.00
32215;DHT22;18708;53.124;23.190;2022-11-20T08:36:22;0.00;1.00
32215;DHT22;18708;53.124;23.190;2022-11-20T08:38:49;-0.30;1.00
32215;DHT22;18708;53.124;23.190;2022-11-20T08:41:15;-0.10;1.00
32215;DHT22;18708;53.124;23.190;2022-11-20T08:43:52;0.30;1.00
32215;DHT22;18708;53.124;23.190;2022-11-20T08:46:17;0.90;1.00
32215;DHT22;18708;53.124;23.190;2022-11-20T08:48:44;1.40;1.00
32215;DHT22;18708;53.124;23.190;2022-11-20T08:51:10;1.50;1.00
32215;DHT22;18708;53.124;23.190;2022-11-20T08:53:36;1.20;1.00
32215;DHT22;18708;53.124;23.190;2022-11-20T08:56:01;1.20;1.00
32215;DHT22;18708;53.124;23.190;2022-11-20T08:58:27;0.80;1.00
32215;DHT22;18708;53.124;23.190;2022-11-20T09:00:53;0.30;1.00
32215;DHT22;18708;53.124;23.190;2022-11-20T09:03:19;0.40;1.00
32215;DHT22;18708;53.124;23.190;2022-11-20T09:05:44;0.50;1.00
32215;DHT22;18708;53.124;23.190;2022-11-20T09:08:10;0.20;1.00
32215;DHT22;18708;53.124;23.190;2022-11-20T09:10:36;0.20;1.00
32215;DHT22;18708;53.124;23.190;2022-11-20T09:13:01;0.20;1.00
32215;DHT22;18708;53.124;23.190;2022-11-20T09:15:27;0.20;1.00
32215;DHT22;18708;53.124;23.190;2022-11-20T09:18:00;0.00;1.00
32215;DHT22;18708;53.124;23.190;2022-11-20T09:20:28;-0.40;1.00
32215;DHT22;18708;53.124;23.190;2022-11-20T09:22:54;-0.50;1.00
32215;DHT22;18708;53.124;23.190;2022-11-20T09:25:20;-0.40;1.00
32215;DHT22;18708;53.124;23.190;2022-11-20T09:27:46;-0.10;1.00
32215;DHT22;18708;53.124;23.190;2022-11-20T09:30:15;0.90;1.00
32215;DHT22;18708;53.124;23.190;2022-11-20T09:32:41;0.90;1.00
32215;DHT22;18708;53.124;23.190;2022-11-20T09:35:07;1.30;1.00
32215;DHT22;18708;53.124;23.190;2022-11-20T09:37:33;1.20;1.00
32215;DHT22;18708;53.124;23.190;2022-11-20T09:39:58;1.40;1.00
32215;DHT22;18708;53.124;23.190;2022-11-20T09:50:36;2.10;1.00
32215;DHT22;18708;53.124;23.190;2022-11-20T09:53:33;2.20;1.00
32215;DHT22;18708;53.124;23.190;2022-11-20T09:56:02;2.90;1.00
32215;DHT22;18708;53.124;23.190;2022-11-20T09:58:33;2.30;1.00
32215;DHT22;18708;53.124;23.190;2022-11-20T10:03:54;2.90;1.00
32215;DHT22;18708;53.124;23.190;2022-11-20T10:06:39;2.50;3.70
32215;DHT22;18708;53.124;23.190;2022-11-20T10:14:26;2.20;9.20
32215;DHT22;18708;53.124;23.190;2022-11-20T10:25:16;2.70;9.40
32215;DHT22;18708;53.124;23.190;2022-11-20T10:30:41;2.50;7.30
32215;DHT22;18708;53.124;23.190;2022-11-20T10:33:21;2.20;7.80
32215;DHT22;18708;53.124;23.190;2022-11-20T10:36:22;2.30;7.40
32215;DHT22;18708;53.124;23.190;2022-11-20T10:38:59;3.10;7.50
32215;DHT22;18708;53.124;23.190;2022-11-20T10:41:30;2.60;8.50
32215;DHT22;18708;53.124;23.190;2022-11-20T10:44:05;2.60;8.20
32215;DHT22;18708;53.124;23.190;2022-11-20T10:46:44;3.30;8.70
32215;DHT22;18708;53.124;23.190;2022-11-20T10:49:18;2.60;7.50
32215;DHT22;18708;53.124;23.190;2022-11-20T10:51:59;2.50;7.90
32215;DHT22;18708;53.124;23.190;2022-11-20T11:00:09;2.80;7.90
32215;DHT22;18708;53.124;23.190;2022-11-20T11:05:32;4.30;5.60
32215;DHT22;18708;53.124;23.190;2022-11-20T11:07:56;2.50;7.80
32215;DHT22;18708;53.124;23.190;2022-11-20T11:13:07;2.90;9.70
32215;DHT22;18708;53.124;23.190;2022-11-20T11:15:43;2.90;9.90
32215;DHT22;18708;53.124;23.190;2022-11-20T11:18:26;1.70;10.90
32215;DHT22;18708;53.124;23.190;2022-11-20T11:20:54;2.60;12.50
32215;DHT22;18708;53.124;23.190;2022-11-20T11:23:36;2.50;11.90
32215;DHT22;18708;53.124;23.190;2022-11-20T11:26:04;3.00;11.50
32215;DHT22;18708;53.124;23.190;2022-11-20T11:28:31;2.20;13.00
32215;DHT22;18708;53.124;23.190;2022-11-20T11:30:57;3.50;12.40
32215;DHT22;18708;53.124;23.190;2022-11-20T11:33:26;3.50;8.20
32215;DHT22;18708;53.124;23.190;2022-11-20T11:35:54;3.00;7.90
32215;DHT22;18708;53.124;23.190;2022-11-20T11:38:38;3.40;8.60
32215;DHT22;18708;53.124;23.190;2022-11-20T11:41:06;3.00;7.70
32215;DHT22;18708;53.124;23.190;2022-11-20T11:43:34;2.20;7.50
32215;DHT22;18708;53.124;23.190;2022-11-20T11:46:33;2.50;6.60
32215;DHT22;18708;53.124;23.190;2022-11-20T11:54:25;3.50;8.60
32215;DHT22;18708;53.124;23.190;2022-11-20T11:56:51;3.30;6.90
32215;DHT22;18708;53.124;23.190;2022-11-20T11:59:54;3.40;7.80
32215;DHT22;18708;53.124;23.190;2022-11-20T12:02:29;3.20;6.50
32215;DHT22;18708;53.124;23.190;2022-11-20T12:05:00;2.00;10.10
32215;DHT22;18708;53.124;23.190;2022-11-20T12:10:00;1.40;8.30
32215;DHT22;18708;53.124;23.190;2022-11-20T12:12:37;1.60;8.60
32215;DHT22;18708;53.124;23.190;2022-11-20T12:15:11;1.00;8.50
32215;DHT22;18708;53.124;23.190;2022-11-20T12:17:37;1.20;7.40
32215;DHT22;18708;53.124;23.190;2022-11-20T12:20:05;1.80;5.30
32215;DHT22;18708;53.124;23.190;2022-11-20T12:22:54;2.10;5.50
32215;DHT22;18708;53.124;23.190;2022-11-20T12:25:28;2.10;6.00
32215;DHT22;18708;53.124;23.190;2022-11-20T12:30:24;1.70;6.90
32215;DHT22;18708;53.124;23.190;2022-11-20T12:33:22;1.30;5.80
32215;DHT22;18708;53.124;23.190;2022-11-20T12:39:01;1.00;6.50
32215;DHT22;18708;53.124;23.190;2022-11-20T12:42:02;0.80;4.00
32215;DHT22;18708;53.124;23.190;2022-11-20T12:53:07;0.20;1.00
32215;DHT22;18708;53.124;23.190;2022-11-20T13:01:05;0.00;1.00
32215;DHT22;18708;53.124;23.190;2022-11-20T13:03:43;-0.10;1.00
32215;DHT22;18708;53.124;23.190;2022-11-20T13:06:17;-0.20;1.00
32215;DHT22;18708;53.124;23.190;2022-11-20T13:08:52;-0.30;1.00
32215;DHT22;18708;53.124;23.190;2022-11-20T13:14:04;-0.30;1.00
32215;DHT22;18708;53.124;23.190;2022-11-20T13:16:59;-0.30;1.00
32215;DHT22;18708;53.124;23.190;2022-11-20T13:19:26;-0.30;1.00
32215;DHT22;18708;53.124;23.190;2022-11-20T13:21:54;-0.50;1.00
32215;DHT22;18708;53.124;23.190;2022-11-20T13:26:46;-0.60;1.00
32215;DHT22;18708;53.124;23.190;2022-11-20T13:29:19;-0.70;1.00
32215;DHT22;18708;53.124;23.190;2022-11-20T13:31:45;-0.90;1.00
32215;DHT22;18708;53.124;23.190;2022-11-20T13:34:26;-0.90;1.00
32215;DHT22;18708;53.124;23.190;2022-11-20T13:36:54;-1.00;1.00
32215;DHT22;18708;53.124;23.190;2022-11-20T13:39:40;-1.00;1.00
32215;DHT22;18708;53.124;23.190;2022-11-20T13:44:47;-1.20;1.00
32215;DHT22;18708;53.124;23.190;2022-11-20T13:47:25;-1.20;1.00
32215;DHT22;18708;53.124;23.190;2022-11-20T13:49:52;-1.20;1.00
32215;DHT22;18708;53.124;23.190;2022-11-20T13:58:27;-1.20;1.00
32215;DHT22;18708;53.124;23.190;2022-11-20T14:01:18;-1.30;1.00
32215;DHT22;18708;53.124;23.190;2022-11-20T14:03:46;-1.30;1.00
32215;DHT22;18708;53.124;23.190;2022-11-20T14:06:27;-1.30;1.00
32215;DHT22;18708;53.124;23.190;2022-11-20T14:08:54;-1.40;1.00
32215;DHT22;18708;53.124;23.190;2022-11-20T14:11:25;-1.40;1.00
32215;DHT22;18708;53.124;23.190;2022-11-20T14:14:03;-1.50;1.00
32215;DHT22;18708;53.124;23.190;2022-11-20T14:16:38;-1.50;1.00
32215;DHT22;18708;53.124;23.190;2022-11-20T14:21:46;-1.60;1.00
32215;DHT22;18708;53.124;23.190;2022-11-20T14:24:12;-1.60;1.00
32215;DHT22;18708;53.124;23.190;2022-11-20T14:26:43;-1.70;1.00
32215;DHT22;18708;53.124;23.190;2022-11-20T14:29:16;-1.70;1.00
32215;DHT22;18708;53.124;23.190;2022-11-20T14:31:43;-1.80;1.00
32215;DHT22;18708;53.124;23.190;2022-11-20T14:34:19;-1.80;1.00
32215;DHT22;18708;53.124;23.190;2022-11-20T14:36:45;-1.90;1.00
32215;DHT22;18708;53.124;23.190;2022-11-20T14:39:12;-1.90;1.00
32215;DHT22;18708;53.124;23.190;2022-11-20T14:41:51;-1.90;1.00
32215;DHT22;18708;53.124;23.190;2022-11-20T14:44:17;-2.00;1.00
32215;DHT22;18708;53.124;23.190;2022-11-20T14:46:43;-2.00;1.00
32215;DHT22;18708;53.124;23.190;2022-11-20T14:49:10;-2.00;1.00
32215;DHT22;18708;53.124;23.190;2022-11-20T14:51:38;-2.00;1.00
32215;DHT22;18708;53.124;23.190;2022-11-20T14:56:42;-2.10;1.00
32215;DHT22;18708;53.124;23.190;2022-11-20T14:59:26;-2.20;1.00
32215;DHT22;18708;53.124;23.190;2022-11-20T15:02:11;-2.10;1.00
32215;DHT22;18708;53.124;23.190;2022-11-20T15:04:56;-2.10;1.00
32215;DHT22;18708;53.124;23.190;2022-11-20T15:07:33;-2.20;1.00
32215;DHT22;18708;53.124;23.190;2022-11-20T15:10:10;-2.20;1.00
32215;DHT22;18708;53.124;23.190;2022-11-20T15:15:45;-2.20;1.00
32215;DHT22;18708;53.124;23.190;2022-11-20T15:18:19;-2.30;1.00
32215;DHT22;18708;53.124;23.190;2022-11-20T15:20:47;-2.30;1.00
32215;DHT22;18708;53.124;23.190;2022-11-20T15:23:18;-2.20;1.00
32215;DHT22;18708;53.124;23.190;2022-11-20T15:25:44;-2.30;1.00
32215;DHT22;18708;53.124;23.190;2022-11-20T15:28:30;-2.30;1.00
32215;DHT22;18708;53.124;23.190;2022-11-20T15:30:56;-2.20;1.00
32215;DHT22;18708;53.124;23.190;2022-11-20T15:33:22;-2.30;1.00
32215;DHT22;18708;53.124;23.190;2022-11-20T15:35:48;-2.30;1.00
32215;DHT22;18708;53.124;23.190;2022-11-20T15:38:14;-2.30;1.00
32215;DHT22;18708;53.124;23.190;2022-11-20T15:40:39;-2.30;1.00
32215;DHT22;18708;53.124;23.190;2022-11-20T15:43:07;-2.30;1.00
32215;DHT22;18708;53.124;23.190;2022-11-20T15:45:42;-2.40;1.00
32215;DHT22;18708;53.124;23.190;2022-11-20T15:48:21;-2.30;1.00
32215;DHT22;18708;53.124;23.190;2022-11-20T15:53:19;-2.40;1.00
32215;DHT22;18708;53.124;23.190;2022-11-20T15:55:45;-2.40;1.00
32215;DHT22;18708;53.124;23.190;2022-11-20T15:58:11;-2.40;1.00
32215;DHT22;18708;53.124;23.190;2022-11-20T16:00:36;-2.40;1.00
32215;DHT22;18708;53.124;23.190;2022-11-20T16:03:02;-2.40;1.00
32215;DHT22;18708;53.124;23.190;2022-11-20T16:05:29;-2.40;1.00
32215;DHT22;18708;53.124;23.190;2022-11-20T16:07:54;-2.40;13.40
32215;DHT22;18708;53.124;23.190;2022-11-20T16:10:20;-2.40;14.80
32215;DHT22;18708;53.124;23.190;2022-11-20T16:12:45;-2.40;22.30
32215;DHT22;18708;53.124;23.190;2022-11-20T16:15:30;-2.40;60.60
32215;DHT22;18708;53.124;23.190;2022-11-20T16:18:13;-2.40;92.80
32215;DHT22;18708;53.124;23.190;2022-11-20T16:20:39;-2.40;99.90
32215;DHT22;18708;53.124;23.190;2022-11-20T16:23:05;-2.40;99.90
32215;DHT22;18708;53.124;23.190;2022-11-20T16:25:31;-2.40;99.90
32215;DHT22;18708;53.124;23.190;2022-11-20T16:27:57;-2.50;99.90
32215;DHT22;18708;53.124;23.190;2022-11-20T16:30:22;-2.50;99.90
32215;DHT22;18708;53.124;23.190;2022-11-20T16:32:48;-2.50;99.90
32215;DHT22;18708;53.124;23.190;2022-11-20T16:35:14;-2.50;99.90
32215;DHT22;18708;53.124;23.190;2022-11-20T16:37:39;-2.50;99.90
32215;DHT22;18708;53.124;23.190;2022-11-20T16:40:06;-2.50;99.90
32215;DHT22;18708;53.124;23.190;2022-11-20T16:42:35;-2.50;99.90
32215;DHT22;18708;53.124;23.190;2022-11-20T16:45:01;-2.50;99.90
32215;DHT22;18708;53.124;23.190;2022-11-20T16:47:26;-2.50;99.90
32215;DHT22;18708;53.124;23.190;2022-11-20T16:49:52;-2.50;99.90
32215;DHT22;18708;53.124;23.190;2022-11-20T16:52:18;-2.50;99.90
32215;DHT22;18708;53.124;23.190;2022-11-20T16:54:43;-2.60;99.90
32215;DHT22;18708;53.124;23.190;2022-11-20T16:57:09;-2.50;99.90
32215;DHT22;18708;53.124;23.190;2022-11-20T16:59:35;-2.60;99.90
32215;DHT22;18708;53.124;23.190;2022-11-20T17:02:00;-2.60;99.90
32215;DHT22;18708;53.124;23.190;2022-11-20T17:04:26;-2.60;99.90
32215;DHT22;18708;53.124;23.190;2022-11-20T17:06:51;-2.50;99.90
32215;DHT22;18708;53.124;23.190;2022-11-20T17:09:17;-2.60;99.90
32215;DHT22;18708;53.124;23.190;2022-11-20T17:11:43;-2.60;99.90
32215;DHT22;18708;53.124;23.190;2022-11-20T17:14:10;-2.50;99.90
32215;DHT22;18708;53.124;23.190;2022-11-20T17:16:36;-2.60;99.90
32215;DHT22;18708;53.124;23.190;2022-11-20T17:19:03;-2.60;99.90
32215;DHT22;18708;53.124;23.190;2022-11-20T17:21:30;-2.60;99.90